Time;durP1;ratioP1;P1;durP2;ratioP2;P2;SDS_P1;SDS_P2;PMS_P1;PMS_P2;Temp;Humidity;BMP_temperature;BMP_pressure;BME280_temperature;BME280_humidity;BME280_pressure;Samples;Min_cycle;Max_cycle;Signal;HPM_P1;HPM_P2
2024/01/10 00:01:46;;;;;;;24.87;12.13;;;;;;;;;;6246594;23;20386;-69
2024/01/10 00:04:12;;;;;;;21.93;12.47;;;;;;;;;;6246599;23;20374;-69
2024/01/10 00:06:38;;;;;;;17.53;12.37;;;;;;;;;;6246719;23;20904;-69
2024/01/10 00:09:04;;;;;;;14.57;11.60;;;;;;;;;;6246852;23;20371;-69
2024/01/10 00:11:30;;;;;;;14.90;11.33;;;;;;;;;;6246705;23;20383;-70
2024/01/10 00:13:59;;;;;;;18.07;11.77;;;;;;;;;;6246432;23;20370;-69
2024/01/10 00:16:26;;;;;;;16.90;10.20;;;;;;;;;;6219499;23;20390;-69
2024/01/10 00:18:52;;;;;;;15.17;10.73;;;;;;;;;;6246744;23;20381;-69
2024/01/10 00:21:18;;;;;;;15.27;11.27;;;;;;;;;;6246396;23;20712;-71
2024/01/10 00:23:44;;;;;;;16.87;10.90;;;;;;;;;;6246391;23;20670;-69
2024/01/10 00:26:10;;;;;;;17.70;11.93;;;;;;;;;;6246563;23;20462;-70
2024/01/10 00:28:36;;;;;;;18.13;11.33;;;;;;;;;;6246185;23;20374;-69
2024/01/10 00:31:02;;;;;;;16.43;11.83;;;;;;;;;;6246328;23;20375;-70
2024/01/10 00:33:28;;;;;;;17.73;10.97;;;;;;;;;;6246203;23;20381;-70
2024/01/10 00:35:54;;;;;;;19.27;12.40;;;;;;;;;;6246317;23;20375;-70
2024/01/10 00:38:20;;;;;;;17.93;12.00;;;;;;;;;;6246018;23;20429;-69
2024/01/10 00:40:46;;;;;;;14.83;11.70;;;;;;;;;;6247172;23;20374;-69
2024/01/10 00:43:12;;;;;;;17.73;11.53;;;;;;;;;;6246442;23;20765;-69
2024/01/10 00:45:38;;;;;;;19.00;11.90;;;;;;;;;;6246245;23;20414;-70
2024/01/10 00:48:04;;;;;;;18.47;11.50;;;;;;;;;;6245873;23;20379;-69
2024/01/10 00:50:30;;;;;;;15.30;11.27;;;;;;;;;;6246079;23;20456;-69
2024/01/10 00:52:56;;;;;;;15.70;11.70;;;;;;;;;;6246769;23;20836;-69
2024/01/10 00:55:22;;;;;;;15.97;11.93;;;;;;;;;;6246415;23;20700;-69
2024/01/10 00:57:48;;;;;;;19.83;10.97;;;;;;;;;;6245942;23;20386;-70
2024/01/10 01:00:14;;;;;;;15.37;11.40;;;;;;;;;;6219089;23;20417;-70
2024/01/10 01:02:40;;;;;;;14.03;10.90;;;;;;;;;;6245958;23;20848;-69
2024/01/10 01:05:07;;;;;;;19.50;13.33;;;;;;;;;;6246304;23;20386;-69
2024/01/10 01:07:33;;;;;;;17.50;11.57;;;;;;;;;;6245854;23;20770;-69
2024/01/10 01:09:59;;;;;;;18.23;12.67;;;;;;;;;;6246262;23;20444;-69
2024/01/10 01:12:25;;;;;;;15.80;11.87;;;;;;;;;;6219039;23;20422;-70
2024/01/10 01:14:51;;;;;;;16.67;12.40;;;;;;;;;;6246148;23;20378;-69
2024/01/10 01:17:17;;;;;;;15.63;11.37;;;;;;;;;;6245842;23;20370;-70
2024/01/10 01:19:43;;;;;;;19.33;13.20;;;;;;;;;;6245771;23;20424;-69
2024/01/10 01:22:09;;;;;;;15.57;10.83;;;;;;;;;;6245901;23;20370;-70
2024/01/10 01:24:35;;;;;;;17.93;10.67;;;;;;;;;;6219095;23;20975;-70
2024/01/10 01:27:01;;;;;;;15.90;11.43;;;;;;;;;;6246008;23;20432;-70
2024/01/10 01:29:30;;;;;;;18.37;11.90;;;;;;;;;;6245860;23;20438;-70
2024/01/10 01:31:57;;;;;;;18.27;12.17;;;;;;;;;;6245868;23;20378;-69
2024/01/10 01:34:22;;;;;;;15.07;11.80;;;;;;;;;;6246240;23;20374;-69
2024/01/10 01:36:51;;;;;;;19.37;13.10;;;;;;;;;;6246324;23;20381;-70
2024/01/10 01:39:17;;;;;;;17.40;11.83;;;;;;;;;;6218694;23;20436;-69
2024/01/10 01:41:42;;;;;;;19.50;12.10;;;;;;;;;;6246035;23;20382;-69
2024/01/10 01:44:09;;;;;;;20.20;13.60;;;;;;;;;;6246397;23;20382;-69
2024/01/10 01:46:35;;;;;;;18.23;12.80;;;;;;;;;;6245910;23;20441;-69
2024/01/10 01:49:01;;;;;;;20.67;13.73;;;;;;;;;;6245787;23;20737;-70
2024/01/10 01:51:28;;;;;;;19.10;12.40;;;;;;;;;;6246024;23;20381;-69
2024/01/10 01:53:54;;;;;;;19.03;11.77;;;;;;;;;;6245686;23;20691;-69
2024/01/10 01:56:20;;;;;;;19.67;13.33;;;;;;;;;;6245846;23;20367;-69
2024/01/10 01:58:47;;;;;;;21.07;12.33;;;;;;;;;;6247308;23;20697;-69
2024/01/10 02:01:13;;;;;;;18.20;12.67;;;;;;;;;;6247682;23;20378;-69
2024/01/10 02:03:39;;;;;;;20.97;13.20;;;;;;;;;;6248163;23;20432;-69
2024/01/10 02:06:05;;;;;;;22.33;13.53;;;;;;;;;;6247592;23;20496;-70
2024/01/10 02:08:34;;;;;;;22.20;14.67;;;;;;;;;;6248048;23;20391;-69
2024/01/10 02:11:04;;;;;;;23.10;14.07;;;;;;;;;;6247678;23;20394;-69
2024/01/10 02:13:32;;;;;;;21.60;13.30;;;;;;;;;;6247674;23;20849;-70
2024/01/10 02:15:58;;;;;;;22.87;13.60;;;;;;;;;;6247581;23;20906;-69
2024/01/10 02:18:24;;;;;;;23.40;14.80;;;;;;;;;;6247822;23;20728;-70
2024/01/10 02:20:51;;;;;;;19.60;14.73;;;;;;;;;;6247903;23;20377;-69
2024/01/10 02:23:17;;;;;;;22.63;14.37;;;;;;;;;;6220785;23;20691;-70
2024/01/10 02:25:43;;;;;;;22.33;13.47;;;;;;;;;;6247361;23;20911;-69
2024/01/10 02:28:09;;;;;;;16.30;12.67;;;;;;;;;;6247794;23;20383;-69
2024/01/10 02:30:35;;;;;;;22.37;13.27;;;;;;;;;;6220682;23;20385;-69
2024/01/10 02:33:01;;;;;;;14.20;12.20;;;;;;;;;;6247417;23;20374;-69
2024/01/10 02:35:27;;;;;;;18.63;12.60;;;;;;;;;;6247218;23;20378;-69
2024/01/10 02:37:56;;;;;;;17.77;12.97;;;;;;;;;;6221161;23;20390;-69
2024/01/10 02:40:22;;;;;;;22.00;14.10;;;;;;;;;;6247519;23;20367;-69
2024/01/10 02:42:48;;;;;;;20.60;13.50;;;;;;;;;;6247483;23;20366;-69
2024/01/10 02:45:14;;;;;;;24.80;14.23;;;;;;;;;;6247203;23;20684;-69
2024/01/10 02:47:40;;;;;;;20.87;13.73;;;;;;;;;;6220522;23;20432;-68
2024/01/10 02:50:06;;;;;;;17.40;13.30;;;;;;;;;;6247276;23;20709;-69
2024/01/10 02:52:32;;;;;;;23.60;14.07;;;;;;;;;;6247231;23;20465;-69
2024/01/10 02:54:58;;;;;;;21.03;13.80;;;;;;;;;;6247146;23;20416;-69
2024/01/10 02:57:24;;;;;;;24.17;14.07;;;;;;;;;;6247529;23;20709;-69
2024/01/10 02:59:50;;;;;;;19.80;13.10;;;;;;;;;;6247118;23;20821;-69
2024/01/10 03:02:16;;;;;;;21.50;13.43;;;;;;;;;;6247393;23;20416;-69
2024/01/10 03:04:43;;;;;;;15.13;11.50;;;;;;;;;;6247390;23;20428;-69
2024/01/10 03:07:09;;;;;;;16.77;13.10;;;;;;;;;;6247337;23;20513;-69
2024/01/10 03:09:35;;;;;;;18.93;13.60;;;;;;;;;;6246981;23;20797;-69
2024/01/10 03:12:01;;;;;;;19.30;11.83;;;;;;;;;;6247098;23;20447;-69
2024/01/10 03:14:27;;;;;;;21.10;13.30;;;;;;;;;;6247324;23;20370;-69
2024/01/10 03:16:53;;;;;;;20.77;12.57;;;;;;;;;;6220061;23;20392;-69
2024/01/10 03:19:19;;;;;;;22.23;12.57;;;;;;;;;;6247071;23;20387;-69
2024/01/10 03:21:45;;;;;;;21.20;12.10;;;;;;;;;;6247334;23;20378;-69
2024/01/10 03:24:11;;;;;;;19.90;11.90;;;;;;;;;;6247944;23;20461;-69
2024/01/10 03:26:37;;;;;;;22.37;12.37;;;;;;;;;;6246664;23;20493;-70
2024/01/10 03:29:03;;;;;;;19.97;12.47;;;;;;;;;;6247223;23;20446;-69
2024/01/10 03:31:30;;;;;;;18.53;11.23;;;;;;;;;;6247289;23;20381;-70
2024/01/10 03:33:58;;;;;;;22.80;12.73;;;;;;;;;;6246874;23;20378;-69
2024/01/10 03:36:24;;;;;;;16.57;12.30;;;;;;;;;;6219972;23;20430;-69
2024/01/10 03:38:50;;;;;;;19.00;12.20;;;;;;;;;;6246789;23;20425;-69
2024/01/10 03:41:17;;;;;;;15.33;11.60;;;;;;;;;;6247392;23;20387;-70
2024/01/10 03:43:43;;;;;;;19.87;12.37;;;;;;;;;;6247105;23;20370;-69
2024/01/10 03:46:10;;;;;;;18.87;13.30;;;;;;;;;;6246911;23;20434;-69
2024/01/10 03:48:36;;;;;;;27.53;14.40;;;;;;;;;;6246702;23;20385;-70
2024/01/10 03:51:03;;;;;;;20.17;13.33;;;;;;;;;;6247963;23;20385;-70
2024/01/10 03:53:29;;;;;;;31.83;16.60;;;;;;;;;;6247613;23;20437;-69
2024/01/10 03:55:55;;;;;;;25.60;15.80;;;;;;;;;;6246630;23;20469;-69
2024/01/10 03:58:21;;;;;;;17.73;12.97;;;;;;;;;;6246922;23;20375;-70
2024/01/10 04:00:47;;;;;;;19.43;12.90;;;;;;;;;;6246888;23;20374;-69
2024/01/10 04:03:13;;;;;;;22.53;14.03;;;;;;;;;;6246526;23;20384;-69
2024/01/10 04:05:39;;;;;;;19.70;12.87;;;;;;;;;;6246457;23;20422;-69
2024/01/10 04:08:05;;;;;;;22.13;13.23;;;;;;;;;;6246885;23;20473;-69
2024/01/10 04:10:31;;;;;;;22.07;12.80;;;;;;;;;;6247121;23;20374;-69
2024/01/10 04:12:58;;;;;;;22.07;13.00;;;;;;;;;;6246753;23;20456;-70
2024/01/10 04:15:24;;;;;;;20.73;13.43;;;;;;;;;;6246486;23;20375;-70
2024/01/10 04:17:50;;;;;;;18.10;12.60;;;;;;;;;;6246374;23;20404;-70
2024/01/10 04:20:16;;;;;;;21.47;12.63;;;;;;;;;;6246273;23;20436;-70
2024/01/10 04:22:42;;;;;;;17.50;12.07;;;;;;;;;;6245957;23;20410;-70
2024/01/10 04:25:08;;;;;;;23.27;13.27;;;;;;;;;;6246566;23;20379;-70
2024/01/10 04:27:34;;;;;;;20.30;12.90;;;;;;;;;;6246521;23;20469;-69
2024/01/10 04:30:00;;;;;;;24.13;13.43;;;;;;;;;;6246634;23;20425;-70
2024/01/10 04:32:26;;;;;;;24.83;13.60;;;;;;;;;;6246245;23;20418;-70
2024/01/10 04:34:52;;;;;;;17.70;13.23;;;;;;;;;;6219667;23;20388;-70
2024/01/10 04:37:18;;;;;;;18.37;12.77;;;;;;;;;;6246195;23;20457;-69
2024/01/10 04:39:44;;;;;;;20.80;12.77;;;;;;;;;;6246167;23;20524;-69
2024/01/10 04:42:13;;;;;;;16.90;11.73;;;;;;;;;;6246156;23;20776;-70
2024/01/10 04:44:39;;;;;;;21.10;12.77;;;;;;;;;;6219603;23;20456;-70
2024/01/10 04:47:06;;;;;;;13.00;11.27;;;;;;;;;;6245889;23;20430;-69
2024/01/10 04:49:32;;;;;;;18.57;12.70;;;;;;;;;;6246391;23;20385;-70
2024/01/10 04:51:58;;;;;;;24.27;14.77;;;;;;;;;;6245991;23;20374;-69
2024/01/10 04:54:24;;;;;;;19.17;12.63;;;;;;;;;;6246725;23;20425;-69
2024/01/10 04:56:50;;;;;;;23.17;13.03;;;;;;;;;;6246681;23;20390;-69
2024/01/10 04:59:16;;;;;;;26.03;13.57;;;;;;;;;;6246251;23;20841;-69
2024/01/10 05:01:42;;;;;;;19.23;13.57;;;;;;;;;;6246351;23;20394;-69
2024/01/10 05:04:08;;;;;;;21.30;13.80;;;;;;;;;;6246313;23;20461;-69
2024/01/10 05:06:34;;;;;;;25.23;13.27;;;;;;;;;;6245822;23;20469;-70
2024/01/10 05:09:00;;;;;;;18.00;13.50;;;;;;;;;;6245932;23;20382;-70
2024/01/10 05:11:26;;;;;;;18.60;13.47;;;;;;;;;;6219078;23;20485;-69
2024/01/10 05:13:53;;;;;;;20.43;13.10;;;;;;;;;;6246181;23;20378;-70
2024/01/10 05:16:18;;;;;;;18.80;13.80;;;;;;;;;;6218984;23;20409;-69
2024/01/10 05:18:44;;;;;;;18.67;12.77;;;;;;;;;;6245717;23;20860;-69
2024/01/10 05:21:10;;;;;;;18.00;12.73;;;;;;;;;;6246078;23;20385;-70
2024/01/10 05:23:38;;;;;;;21.53;13.27;;;;;;;;;;6246228;23;20429;-69
2024/01/10 05:26:04;;;;;;;22.03;14.53;;;;;;;;;;6246347;23;20907;-70
2024/01/10 05:28:30;;;;;;;21.63;13.40;;;;;;;;;;6245768;23;20377;-69
2024/01/10 05:34:00;;;;;;;16.47;12.97;;;;;;;;;;6246028;23;20357;-69
2024/01/10 05:36:26;;;;;;;22.97;14.00;;;;;;;;;;6246038;23;20378;-70
2024/01/10 05:38:52;;;;;;;24.23;13.77;;;;;;;;;;6245459;23;20951;-69
2024/01/10 05:41:18;;;;;;;19.20;12.97;;;;;;;;;;6245645;23;20709;-69
2024/01/10 05:43:44;;;;;;;21.87;12.80;;;;;;;;;;6246203;23;20423;-69
2024/01/10 05:46:10;;;;;;;20.40;13.60;;;;;;;;;;6245867;23;20434;-69
2024/01/10 05:48:37;;;;;;;25.63;13.90;;;;;;;;;;6246008;23;20370;-69
2024/01/10 05:51:03;;;;;;;23.33;15.53;;;;;;;;;;6246055;23;20398;-70
2024/01/10 05:53:29;;;;;;;23.43;13.80;;;;;;;;;;6246994;23;20375;-69
2024/01/10 05:55:55;;;;;;;22.47;15.00;;;;;;;;;;6245755;23;20421;-69
2024/01/10 05:58:21;;;;;;;16.50;13.60;;;;;;;;;;6245576;23;20405;-69
2024/01/10 06:00:47;;;;;;;21.70;14.30;;;;;;;;;;6245813;23;20374;-69
2024/01/10 06:03:13;;;;;;;26.53;15.43;;;;;;;;;;6245891;23;20439;-69
2024/01/10 06:05:39;;;;;;;21.17;14.20;;;;;;;;;;6218776;23;20385;-69
2024/01/10 06:08:05;;;;;;;21.63;14.07;;;;;;;;;;6246275;23;20389;-70
2024/01/10 06:10:31;;;;;;;23.77;14.90;;;;;;;;;;6245795;23;20382;-69
2024/01/10 06:12:57;;;;;;;20.17;13.20;;;;;;;;;;6245587;23;20474;-69
2024/01/10 06:15:23;;;;;;;22.67;13.93;;;;;;;;;;6245784;23;20871;-70
2024/01/10 06:17:49;;;;;;;26.33;17.13;;;;;;;;;;6244298;23;20661;-70
2024/01/10 06:20:16;;;;;;;27.60;15.33;;;;;;;;;;6245825;23;20859;-70
2024/01/10 06:22:42;;;;;;;23.60;16.10;;;;;;;;;;6245267;23;20386;-70
2024/01/10 06:25:08;;;;;;;19.10;14.10;;;;;;;;;;6245444;23;20374;-69
2024/01/10 06:27:34;;;;;;;24.07;14.70;;;;;;;;;;6245503;23;20461;-63
2024/01/10 06:30:00;;;;;;;25.90;15.57;;;;;;;;;;6245570;23;20375;-70
2024/01/10 06:32:26;;;;;;;21.77;13.97;;;;;;;;;;6219631;23;20394;-70
2024/01/10 06:34:53;;;;;;;24.90;15.17;;;;;;;;;;6245358;23;20389;-70
2024/01/10 06:37:18;;;;;;;22.73;12.83;;;;;;;;;;6245695;23;20420;-70
2024/01/10 06:39:45;;;;;;;16.23;12.30;;;;;;;;;;6245227;23;20846;-70
2024/01/10 06:42:11;;;;;;;17.17;12.67;;;;;;;;;;6245404;23;20848;-70
2024/01/10 06:44:38;;;;;;;21.90;13.30;;;;;;;;;;6219192;23;20398;-70
2024/01/10 06:47:05;;;;;;;19.23;13.17;;;;;;;;;;6247089;23;20426;-70
2024/01/10 06:49:31;;;;;;;22.17;13.93;;;;;;;;;;6247245;23;20374;-70
2024/01/10 06:51:57;;;;;;;22.67;14.60;;;;;;;;;;6247013;23;20435;-70
2024/01/10 06:54:22;;;;;;;24.40;12.57;;;;;;;;;;6247979;23;20367;-70
2024/01/10 06:56:48;;;;;;;22.13;14.30;;;;;;;;;;6247068;23;20428;-70
2024/01/10 06:59:14;;;;;;;22.93;14.20;;;;;;;;;;6220312;23;20397;-70
2024/01/10 07:01:40;;;;;;;28.70;15.30;;;;;;;;;;6246925;23;20406;-70
2024/01/10 07:04:06;;;;;;;24.03;14.13;;;;;;;;;;6220380;23;20397;-70
2024/01/10 07:06:32;;;;;;;23.60;14.90;;;;;;;;;;6246851;23;20438;-70
2024/01/10 07:08:58;;;;;;;19.47;14.07;;;;;;;;;;6247471;23;20457;-70
2024/01/10 07:11:26;;;;;;;20.97;14.47;;;;;;;;;;6246919;23;20382;-69
2024/01/10 07:13:52;;;;;;;25.07;14.77;;;;;;;;;;6247103;23;20368;-69
2024/01/10 07:16:18;;;;;;;24.57;15.10;;;;;;;;;;6247286;23;20437;-69
2024/01/10 07:18:46;;;;;;;22.23;15.37;;;;;;;;;;6247744;23;20380;-70
2024/01/10 07:21:12;;;;;;;25.20;14.70;;;;;;;;;;6247668;23;20394;-70
2024/01/10 07:23:40;;;;;;;21.13;13.20;;;;;;;;;;6246909;23;20705;-70
2024/01/10 07:26:06;;;;;;;21.37;13.50;;;;;;;;;;6247072;23;20571;-69
2024/01/10 07:28:32;;;;;;;23.90;14.23;;;;;;;;;;6246940;23;20371;-69
2024/01/10 07:30:59;;;;;;;23.60;14.50;;;;;;;;;;6247057;23;20390;-70
2024/01/10 07:33:25;;;;;;;25.40;15.90;;;;;;;;;;6247141;23;20393;-70
2024/01/10 07:35:52;;;;;;;25.87;15.77;;;;;;;;;;6247606;23;20409;-70
2024/01/10 07:38:18;;;;;;;24.10;15.77;;;;;;;;;;6248164;23;20464;-69
2024/01/10 07:40:44;;;;;;;27.03;16.27;;;;;;;;;;6247485;23;20382;-69
2024/01/10 07:43:11;;;;;;;23.20;14.60;;;;;;;;;;6247115;23;20433;-70
2024/01/10 07:45:38;;;;;;;24.13;14.10;;;;;;;;;;6246836;23;20366;-70
2024/01/10 07:48:04;;;;;;;21.63;14.67;;;;;;;;;;6219615;23;20394;-69
2024/01/10 07:50:30;;;;;;;21.67;14.83;;;;;;;;;;6246906;23;20370;-70
2024/01/10 07:52:56;;;;;;;23.07;14.60;;;;;;;;;;6246876;23;20423;-70
2024/01/10 07:55:22;;;;;;;22.20;15.17;;;;;;;;;;6246630;23;20375;-69
2024/01/10 07:57:48;;;;;;;36.13;16.40;;;;;;;;;;6246187;23;20775;-69
2024/01/10 08:00:15;;;;;;;19.57;14.97;;;;;;;;;;6246503;23;20410;-70
2024/01/10 08:02:41;;;;;;;30.60;17.90;;;;;;;;;;6246559;23;20424;-69
2024/01/10 08:05:12;;;;;;;25.23;14.93;;;;;;;;;;6246941;23;20848;-69
2024/01/10 08:07:38;;;;;;;24.77;15.80;;;;;;;;;;6246401;23;20513;-69
2024/01/10 08:10:09;;;;;;;36.17;17.93;;;;;;;;;;6246742;23;20381;-69
2024/01/10 08:12:35;;;;;;;24.53;15.70;;;;;;;;;;6246155;23;20389;-70
2024/01/10 08:15:01;;;;;;;28.03;16.00;;;;;;;;;;6246560;23;20440;-70
2024/01/10 08:17:27;;;;;;;28.20;17.17;;;;;;;;;;6219256;23;20397;-69
2024/01/10 08:19:53;;;;;;;24.37;17.37;;;;;;;;;;6246232;23;20375;-69
2024/01/10 08:22:19;;;;;;;26.77;16.03;;;;;;;;;;6219093;23;20716;-70
2024/01/10 08:24:46;;;;;;;26.90;16.73;;;;;;;;;;6246045;23;20407;-69
2024/01/10 08:27:12;;;;;;;34.47;19.00;;;;;;;;;;6246203;23;20433;-70
2024/01/10 08:29:38;;;;;;;31.13;18.83;;;;;;;;;;6219072;23;20414;-69
2024/01/10 08:32:04;;;;;;;37.17;21.40;;;;;;;;;;6246086;23;20859;-70
2024/01/10 08:34:30;;;;;;;35.37;23.20;;;;;;;;;;6246241;23;20370;-70
2024/01/10 08:36:56;;;;;;;41.20;25.80;;;;;;;;;;6246165;23;20389;-70
2024/01/10 08:39:24;;;;;;;34.77;21.07;;;;;;;;;;6246066;23;20426;-70
2024/01/10 08:41:50;;;;;;;31.03;22.20;;;;;;;;;;6245827;23;20390;-70
2024/01/10 08:44:16;;;;;;;35.97;19.50;;;;;;;;;;6245892;23;20857;-70
2024/01/10 08:46:42;;;;;;;35.50;19.80;;;;;;;;;;6245806;23;20441;-70
2024/01/10 08:49:08;;;;;;;46.00;20.83;;;;;;;;;;6219089;23;20477;-69
2024/01/10 08:51:34;;;;;;;30.77;19.60;;;;;;;;;;6245854;23;20382;-70
2024/01/10 08:54:00;;;;;;;39.57;21.37;;;;;;;;;;6245923;23;20377;-69
2024/01/10 08:56:26;;;;;;;24.50;16.17;;;;;;;;;;6246025;23;20390;-70
2024/01/10 08:58:52;;;;;;;35.87;19.90;;;;;;;;;;6246364;23;20378;-69
2024/01/10 09:01:19;;;;;;;41.17;21.40;;;;;;;;;;6246098;23;20473;-69
2024/01/10 09:03:45;;;;;;;33.80;20.03;;;;;;;;;;6246065;23;20374;-69
2024/01/10 09:06:11;;;;;;;31.07;19.63;;;;;;;;;;6245642;23;20410;-69
2024/01/10 09:08:37;;;;;;;32.07;19.83;;;;;;;;;;6245673;23;20394;-68
2024/01/10 09:11:03;;;;;;;35.87;19.97;;;;;;;;;;6245903;23;20394;-68
2024/01/10 09:13:29;;;;;;;30.30;19.17;;;;;;;;;;6246456;23;20461;-69
2024/01/10 09:15:56;;;;;;;49.87;22.90;;;;;;;;;;6218939;23;20390;-68
2024/01/10 09:18:22;;;;;;;30.23;17.80;;;;;;;;;;6245945;23;20752;-70
2024/01/10 09:23:51;;;;;;;24.70;16.57;;;;;;;;;;6245771;23;20362;-68
2024/01/10 09:26:20;;;;;;;32.77;18.57;;;;;;;;;;6245313;23;20414;-69
2024/01/10 09:28:46;;;;;;;18.47;12.37;;;;;;;;;;6245947;23;20911;-69
2024/01/10 09:31:12;;;;;;;22.17;14.27;;;;;;;;;;6245535;23;20374;-70
2024/01/10 09:33:38;;;;;;;22.53;13.77;;;;;;;;;;6218558;23;20468;-70
2024/01/10 09:36:05;;;;;;;23.43;13.00;;;;;;;;;;6245581;23;20382;-70
2024/01/10 09:38:35;;;;;;;19.23;13.30;;;;;;;;;;6245213;23;20441;-70
2024/01/10 09:41:02;;;;;;;19.90;13.50;;;;;;;;;;6245854;23;20374;-70
2024/01/10 09:43:31;;;;;;;21.93;12.93;;;;;;;;;;6245876;23;20378;-70
2024/01/10 09:45:58;;;;;;;18.27;12.10;;;;;;;;;;6245331;23;20429;-70
2024/01/10 09:48:25;;;;;;;20.53;11.70;;;;;;;;;;6246772;23;20378;-70
2024/01/10 09:50:52;;;;;;;21.10;13.70;;;;;;;;;;6245732;23;20370;-69
2024/01/10 09:53:24;;;;;;;14.50;10.60;;;;;;;;;;6245770;23;20393;-70
2024/01/10 09:55:50;;;;;;;19.43;14.97;;;;;;;;;;6245358;23;20363;-70
2024/01/10 09:58:17;;;;;;;17.80;11.20;;;;;;;;;;6245387;23;20762;-70
2024/01/10 10:00:44;;;;;;;15.43;11.50;;;;;;;;;;6245897;23;20852;-70
2024/01/10 10:03:12;;;;;;;17.03;12.60;;;;;;;;;;6245762;23;20680;-69
2024/01/10 10:05:38;;;;;;;22.50;12.83;;;;;;;;;;6245306;23;20397;-69
2024/01/10 10:08:07;;;;;;;14.60;10.90;;;;;;;;;;6245417;23;20387;-69
2024/01/10 10:10:33;;;;;;;22.30;12.47;;;;;;;;;;6245355;23;20370;-69
2024/01/10 10:12:59;;;;;;;13.37;10.70;;;;;;;;;;6245298;23;20382;-70
2024/01/10 10:15:26;;;;;;;13.97;9.77;;;;;;;;;;6245596;23;20371;-69
2024/01/10 10:17:53;;;;;;;15.53;10.73;;;;;;;;;;6245644;23;20374;-70
2024/01/10 10:20:26;;;;;;;14.43;10.67;;;;;;;;;;6246914;23;20366;-69
2024/01/10 10:23:10;;;;;;;16.43;11.17;;;;;;;;;;6247189;23;20961;-70
2024/01/10 10:25:47;;;;;;;14.23;10.83;;;;;;;;;;6247892;23;20382;-70
2024/01/10 10:28:13;;;;;;;17.90;12.50;;;;;;;;;;6247926;23;20370;-69
2024/01/10 10:30:39;;;;;;;21.30;12.97;;;;;;;;;;6247533;23;20454;-69
2024/01/10 10:33:08;;;;;;;17.63;12.67;;;;;;;;;;6247541;23;20945;-70
2024/01/10 10:35:34;;;;;;;18.63;11.57;;;;;;;;;;6247363;23;20374;-70
2024/01/10 10:38:00;;;;;;;17.50;11.73;;;;;;;;;;6220225;23;20428;-69
2024/01/10 10:40:26;;;;;;;21.60;12.43;;;;;;;;;;6247519;23;20398;-70
2024/01/10 10:42:56;;;;;;;20.87;13.60;;;;;;;;;;6247376;23;20381;-70
2024/01/10 10:45:25;;;;;;;13.30;10.40;;;;;;;;;;6247840;23;20388;-69
2024/01/10 10:47:55;;;;;;;20.20;13.73;;;;;;;;;;6247084;23;20491;-70
2024/01/10 10:50:22;;;;;;;22.63;11.10;;;;;;;;;;6247093;23;20374;-70
2024/01/10 10:52:48;;;;;;;15.40;11.43;;;;;;;;;;6247431;23;20389;-70
2024/01/10 10:55:16;;;;;;;14.70;10.33;;;;;;;;;;6247378;23;20394;-70
2024/01/10 10:57:43;;;;;;;21.93;12.10;;;;;;;;;;6220133;23;20470;-69
2024/01/10 11:00:10;;;;;;;20.43;14.13;;;;;;;;;;6247281;23;20428;-70
2024/01/10 11:02:37;;;;;;;20.63;13.60;;;;;;;;;;6246999;23;20377;-69
2024/01/10 11:05:04;;;;;;;17.10;12.87;;;;;;;;;;6247082;23;20386;-69
2024/01/10 11:07:30;;;;;;;19.43;13.00;;;;;;;;;;6246786;23;20426;-69
2024/01/10 11:09:58;;;;;;;22.53;13.63;;;;;;;;;;6246880;23;20374;-70
2024/01/10 11:12:50;;;;;;;21.47;14.97;;;;;;;;;;6220024;23;20398;-69
2024/01/10 11:15:27;;;;;;;23.77;12.90;;;;;;;;;;6220514;23;20555;-69
2024/01/10 11:18:02;;;;;;;21.80;12.47;;;;;;;;;;6246640;23;20781;-70
2024/01/10 11:23:39;;;;;;;21.30;14.07;;;;;;;;;;6246937;23;20404;-70
2024/01/10 11:26:05;;;;;;;22.40;14.33;;;;;;;;;;6246459;23;20422;-69
2024/01/10 11:28:31;;;;;;;22.63;14.40;;;;;;;;;;6247020;23;20390;-70
2024/01/10 11:30:59;;;;;;;19.73;12.10;;;;;;;;;;6246971;23;20382;-70
2024/01/10 11:33:32;;;;;;;24.43;14.20;;;;;;;;;;6219800;23;20489;-70
2024/01/10 11:36:11;;;;;;;21.60;14.60;;;;;;;;;;6246750;23;20373;-69
2024/01/10 11:38:40;;;;;;;20.30;12.73;;;;;;;;;;6246316;23;20433;-69
2024/01/10 11:41:08;;;;;;;18.60;14.10;;;;;;;;;;6246854;23;20381;-70
2024/01/10 11:43:37;;;;;;;23.13;13.67;;;;;;;;;;6247340;23;20378;-70
2024/01/10 11:46:04;;;;;;;19.63;12.53;;;;;;;;;;6246771;23;20458;-69
2024/01/10 11:48:31;;;;;;;18.60;12.60;;;;;;;;;;6246539;23;20378;-69
2024/01/10 11:51:00;;;;;;;21.37;12.67;;;;;;;;;;6246389;23;20453;-70
2024/01/10 11:53:42;;;;;;;16.97;12.67;;;;;;;;;;6246843;23;20389;-69
2024/01/10 11:56:15;;;;;;;18.10;12.30;;;;;;;;;;6219477;23;20733;-69
2024/01/10 11:58:59;;;;;;;20.73;13.03;;;;;;;;;;6246542;23;20394;-70
2024/01/10 12:01:25;;;;;;;23.40;12.13;;;;;;;;;;6246285;23;20386;-70
2024/01/10 12:03:53;;;;;;;18.00;11.97;;;;;;;;;;6219703;23;20386;-70
2024/01/10 12:06:20;;;;;;;16.50;12.70;;;;;;;;;;6247326;23;20432;-70
2024/01/10 12:08:46;;;;;;;15.47;12.60;;;;;;;;;;6246631;23;20386;-70
2024/01/10 12:11:11;;;;;;;19.87;13.63;;;;;;;;;;6246527;23;20744;-69
2024/01/10 12:13:37;;;;;;;19.00;13.50;;;;;;;;;;6246211;23;20461;-71
2024/01/10 12:16:04;;;;;;;22.47;13.60;;;;;;;;;;6246393;23;20378;-69
2024/01/10 12:18:29;;;;;;;19.67;13.57;;;;;;;;;;6219176;23;20413;-69
2024/01/10 12:20:55;;;;;;;21.03;13.00;;;;;;;;;;6246477;23;20864;-69
2024/01/10 12:23:21;;;;;;;27.63;12.33;;;;;;;;;;6246239;23;20759;-70
2024/01/10 12:25:49;;;;;;;19.00;12.73;;;;;;;;;;6246197;23;20378;-70
2024/01/10 12:28:18;;;;;;;17.17;11.80;;;;;;;;;;6246139;23;20405;-70
2024/01/10 12:30:44;;;;;;;18.73;11.97;;;;;;;;;;6246483;23;20367;-69
2024/01/10 12:33:10;;;;;;;15.23;11.23;;;;;;;;;;6245974;23;20381;-70
2024/01/10 12:35:41;;;;;;;20.73;13.10;;;;;;;;;;6246871;23;20374;-70
2024/01/10 12:38:07;;;;;;;17.37;10.63;;;;;;;;;;6245813;23;20437;-71
2024/01/10 12:40:33;;;;;;;16.17;12.33;;;;;;;;;;6247245;23;20362;-70
2024/01/10 12:43:03;;;;;;;21.57;12.57;;;;;;;;;;6245958;23;20447;-69
2024/01/10 12:45:28;;;;;;;32.20;13.63;;;;;;;;;;6245727;23;20708;-70
2024/01/10 12:47:54;;;;;;;17.73;12.20;;;;;;;;;;6246748;23;20466;-70
2024/01/10 12:50:20;;;;;;;23.03;13.57;;;;;;;;;;6246124;23;20374;-69
2024/01/10 12:52:48;;;;;;;19.70;13.60;;;;;;;;;;6246097;23;20475;-69
2024/01/10 12:55:14;;;;;;;24.90;13.50;;;;;;;;;;6246317;23;20371;-70
2024/01/10 12:57:41;;;;;;;19.10;13.40;;;;;;;;;;6246450;23;20453;-69
2024/01/10 13:00:08;;;;;;;22.77;13.20;;;;;;;;;;6245896;23;20406;-69
2024/01/10 13:02:36;;;;;;;24.53;13.93;;;;;;;;;;6246402;23;20375;-69
2024/01/10 13:05:03;;;;;;;19.63;11.70;;;;;;;;;;6246011;23;20378;-70
2024/01/10 13:07:31;;;;;;;23.70;12.00;;;;;;;;;;6246115;23;20425;-69
2024/01/10 13:09:57;;;;;;;21.13;12.50;;;;;;;;;;6246342;23;20428;-69
2024/01/10 13:12:23;;;;;;;21.53;10.83;;;;;;;;;;6245931;23;20465;-70
2024/01/10 13:14:49;;;;;;;19.47;11.93;;;;;;;;;;6245824;23;20409;-70
2024/01/10 13:17:16;;;;;;;20.80;11.70;;;;;;;;;;6245801;23;20382;-71
2024/01/10 13:19:45;;;;;;;20.50;12.30;;;;;;;;;;6246199;23;20858;-70
2024/01/10 13:22:13;;;;;;;19.90;12.27;;;;;;;;;;6246200;23;20386;-70
2024/01/10 13:24:39;;;;;;;16.40;12.27;;;;;;;;;;6245955;23;20370;-70
2024/01/10 13:27:05;;;;;;;15.40;11.73;;;;;;;;;;6246307;23;20508;-70
2024/01/10 13:29:31;;;;;;;23.23;13.30;;;;;;;;;;6245924;23;20378;-70
2024/01/10 13:31:57;;;;;;;17.03;12.60;;;;;;;;;;6245353;23;20389;-70
2024/01/10 13:34:23;;;;;;;24.07;13.60;;;;;;;;;;6246119;23;20377;-69
2024/01/10 13:36:49;;;;;;;16.20;12.30;;;;;;;;;;6245633;23;20381;-69
2024/01/10 13:39:15;;;;;;;22.23;14.30;;;;;;;;;;6245346;23;20509;-70
2024/01/10 13:41:41;;;;;;;21.97;12.27;;;;;;;;;;6245618;23;20464;-69
2024/01/10 13:44:08;;;;;;;17.20;11.83;;;;;;;;;;6245975;23;20926;-69
2024/01/10 13:46:34;;;;;;;19.57;13.13;;;;;;;;;;6245854;23;20529;-70
2024/01/10 13:49:01;;;;;;;20.43;13.20;;;;;;;;;;6245730;23;20805;-70
2024/01/10 13:51:27;;;;;;;20.07;13.40;;;;;;;;;;6245900;23;20386;-70
2024/01/10 13:53:53;;;;;;;16.87;11.80;;;;;;;;;;6246108;23;20820;-70
2024/01/10 13:56:22;;;;;;;21.43;13.80;;;;;;;;;;6248344;23;20413;-69
2024/01/10 13:58:48;;;;;;;20.93;13.90;;;;;;;;;;6248101;23;20428;-69
2024/01/10 14:01:14;;;;;;;18.67;13.00;;;;;;;;;;6247599;23;20381;-70
2024/01/10 14:03:40;;;;;;;29.63;17.40;;;;;;;;;;6247785;23;20366;-70
2024/01/10 14:06:06;;;;;;;35.67;20.87;;;;;;;;;;6247432;23;20425;-70
2024/01/10 14:08:33;;;;;;;19.30;13.90;;;;;;;;;;6247683;23;20686;-70
2024/01/10 14:10:59;;;;;;;17.87;12.57;;;;;;;;;;6248398;23;20855;-69
2024/01/10 14:13:26;;;;;;;17.83;12.50;;;;;;;;;;6248890;23;20394;-69
2024/01/10 14:15:52;;;;;;;16.40;11.47;;;;;;;;;;6248223;23;20382;-69
2024/01/10 14:18:21;;;;;;;18.93;12.57;;;;;;;;;;6247622;23;20390;-69
2024/01/10 14:23:51;;;;;;;15.23;11.30;;;;;;;;;;6248126;23;20881;-69
2024/01/10 14:26:17;;;;;;;23.30;14.77;;;;;;;;;;6247897;23;20422;-69